sensor_id;sensor_type;location;lat;lon;timestamp;temperature;humidity
71994;DHT22;59861;50.268;8.648;2023-04-28T00:02:09;16.40;59.30
71994;DHT22;59861;50.268;8.648;2023-04-28T00:04:36;16.40;59.20
71994;DHT22;59861;50.268;8.648;2023-04-28T00:07:03;16.40;59.30
71994;DHT22;59861;50.268;8.648;2023-04-28T00:09:30;16.40;59.20
71994;DHT22;59861;50.268;8.648;2023-04-28T00:11:57;16.40;59.20
71994;DHT22;59861;50.268;8.648;2023-04-28T00:14:24;16.40;59.30
71994;DHT22;59861;50.268;8.648;2023-04-28T00:16:51;16.40;59.10
71994;DHT22;59861;50.268;8.648;2023-04-28T00:19:20;16.40;59.10
71994;DHT22;59861;50.268;8.648;2023-04-28T00:21:47;16.40;59.10
71994;DHT22;59861;50.268;8.648;2023-04-28T00:24:13;16.40;59.10
71994;DHT22;59861;50.268;8.648;2023-04-28T00:26:40;16.40;59.20
71994;DHT22;59861;50.268;8.648;2023-04-28T00:29:07;16.40;59.10
71994;DHT22;59861;50.268;8.648;2023-04-28T00:31:34;16.30;59.10
71994;DHT22;59861;50.268;8.648;2023-04-28T00:34:01;16.40;59.00
71994;DHT22;59861;50.268;8.648;2023-04-28T00:36:27;16.30;59.00
71994;DHT22;59861;50.268;8.648;2023-04-28T00:38:56;16.30;59.10
71994;DHT22;59861;50.268;8.648;2023-04-28T00:41:23;16.30;59.10
71994;DHT22;59861;50.268;8.648;2023-04-28T00:43:50;16.30;59.10
71994;DHT22;59861;50.268;8.648;2023-04-28T00:46:21;16.30;59.10
71994;DHT22;59861;50.268;8.648;2023-04-28T00:48:48;16.30;59.00
71994;DHT22;59861;50.268;8.648;2023-04-28T00:51:15;16.30;59.00
71994;DHT22;59861;50.268;8.648;2023-04-28T00:53:42;16.30;59.00
71994;DHT22;59861;50.268;8.648;2023-04-28T00:56:09;16.30;59.00
71994;DHT22;59861;50.268;8.648;2023-04-28T00:58:37;16.30;59.00
71994;DHT22;59861;50.268;8.648;2023-04-28T01:01:04;16.30;59.00
71994;DHT22;59861;50.268;8.648;2023-04-28T01:03:36;16.30;59.00
71994;DHT22;59861;50.268;8.648;2023-04-28T01:06:03;16.30;59.10
71994;DHT22;59861;50.268;8.648;2023-04-28T01:08:31;16.20;59.00
71994;DHT22;59861;50.268;8.648;2023-04-28T01:10:58;16.30;59.10
71994;DHT22;59861;50.268;8.648;2023-04-28T01:13:25;16.20;59.00
71994;DHT22;59861;50.268;8.648;2023-04-28T01:15:51;16.30;59.00
71994;DHT22;59861;50.268;8.648;2023-04-28T01:18:19;16.20;59.00
71994;DHT22;59861;50.268;8.648;2023-04-28T01:20:46;16.20;59.00
71994;DHT22;59861;50.268;8.648;2023-04-28T01:23:13;16.20;59.10
71994;DHT22;59861;50.268;8.648;2023-04-28T01:25:40;16.20;59.00
71994;DHT22;59861;50.268;8.648;2023-04-28T01:28:07;16.20;59.00
71994;DHT22;59861;50.268;8.648;2023-04-28T01:30:34;16.20;59.00
71994;DHT22;59861;50.268;8.648;2023-04-28T01:33:02;16.20;59.00
71994;DHT22;59861;50.268;8.648;2023-04-28T01:35:29;16.20;59.00
71994;DHT22;59861;50.268;8.648;2023-04-28T01:37:56;16.20;59.00
71994;DHT22;59861;50.268;8.648;2023-04-28T01:40:23;16.20;59.00
71994;DHT22;59861;50.268;8.648;2023-04-28T01:42:49;16.20;59.10
71994;DHT22;59861;50.268;8.648;2023-04-28T01:45:16;16.20;59.00
71994;DHT22;59861;50.268;8.648;2023-04-28T01:47:43;16.20;59.00
71994;DHT22;59861;50.268;8.648;2023-04-28T01:50:10;16.20;59.00
71994;DHT22;59861;50.268;8.648;2023-04-28T01:52:37;16.20;59.00
71994;DHT22;59861;50.268;8.648;2023-04-28T01:55:03;16.20;58.90
71994;DHT22;59861;50.268;8.648;2023-04-28T01:57:30;16.20;59.00
71994;DHT22;59861;50.268;8.648;2023-04-28T01:59:59;16.20;58.90
71994;DHT22;59861;50.268;8.648;2023-04-28T02:02:26;16.20;59.00
71994;DHT22;59861;50.268;8.648;2023-04-28T02:04:53;16.20;59.00
71994;DHT22;59861;50.268;8.648;2023-04-28T02:07:20;16.20;58.90
71994;DHT22;59861;50.268;8.648;2023-04-28T02:09:47;16.20;58.90
71994;DHT22;59861;50.268;8.648;2023-04-28T02:12:14;16.20;58.80
71994;DHT22;59861;50.268;8.648;2023-04-28T02:14:42;16.20;58.90
71994;DHT22;59861;50.268;8.648;2023-04-28T02:17:09;16.20;58.90
71994;DHT22;59861;50.268;8.648;2023-04-28T02:19:35;16.20;59.00
71994;DHT22;59861;50.268;8.648;2023-04-28T02:22:03;16.10;58.80
71994;DHT22;59861;50.268;8.648;2023-04-28T02:24:33;16.10;58.80
71994;DHT22;59861;50.268;8.648;2023-04-28T02:26:58;16.10;58.80
71994;DHT22;59861;50.268;8.648;2023-04-28T02:29:25;16.10;58.80
71994;DHT22;59861;50.268;8.648;2023-04-28T02:31:52;16.10;58.80
71994;DHT22;59861;50.268;8.648;2023-04-28T02:34:19;16.10;58.90
71994;DHT22;59861;50.268;8.648;2023-04-28T02:36:46;16.10;58.80
71994;DHT22;59861;50.268;8.648;2023-04-28T02:39:13;16.10;58.80
71994;DHT22;59861;50.268;8.648;2023-04-28T02:41:39;16.10;58.70
71994;DHT22;59861;50.268;8.648;2023-04-28T02:44:06;16.10;58.80
71994;DHT22;59861;50.268;8.648;2023-04-28T02:46:33;16.10;58.80
71994;DHT22;59861;50.268;8.648;2023-04-28T02:49:00;16.10;58.80
71994;DHT22;59861;50.268;8.648;2023-04-28T02:51:27;16.10;58.80
71994;DHT22;59861;50.268;8.648;2023-04-28T02:53:54;16.10;58.80
71994;DHT22;59861;50.268;8.648;2023-04-28T02:56:21;16.10;58.80
71994;DHT22;59861;50.268;8.648;2023-04-28T02:58:48;16.10;58.80
71994;DHT22;59861;50.268;8.648;2023-04-28T03:01:14;16.10;58.90
71994;DHT22;59861;50.268;8.648;2023-04-28T03:03:41;16.10;58.80
71994;DHT22;59861;50.268;8.648;2023-04-28T03:06:08;16.10;59.10
71994;DHT22;59861;50.268;8.648;2023-04-28T03:08:35;16.10;58.80
71994;DHT22;59861;50.268;8.648;2023-04-28T03:11:02;16.10;58.80
71994;DHT22;59861;50.268;8.648;2023-04-28T03:13:28;16.10;58.80
71994;DHT22;59861;50.268;8.648;2023-04-28T03:15:55;16.10;58.70
71994;DHT22;59861;50.268;8.648;2023-04-28T03:18:22;16.10;58.70
71994;DHT22;59861;50.268;8.648;2023-04-28T03:20:49;16.10;58.70
71994;DHT22;59861;50.268;8.648;2023-04-28T03:23:16;16.10;58.70
71994;DHT22;59861;50.268;8.648;2023-04-28T03:25:42;16.10;58.60
71994;DHT22;59861;50.268;8.648;2023-04-28T03:28:09;16.20;58.60
71994;DHT22;59861;50.268;8.648;2023-04-28T03:30:36;16.10;58.70
71994;DHT22;59861;50.268;8.648;2023-04-28T03:33:03;16.10;58.60
71994;DHT22;59861;50.268;8.648;2023-04-28T03:35:30;16.10;58.70
71994;DHT22;59861;50.268;8.648;2023-04-28T03:37:56;16.10;58.70
71994;DHT22;59861;50.268;8.648;2023-04-28T03:40:23;16.10;58.60
71994;DHT22;59861;50.268;8.648;2023-04-28T03:42:50;16.20;58.70
71994;DHT22;59861;50.268;8.648;2023-04-28T03:45:17;16.10;59.20
71994;DHT22;59861;50.268;8.648;2023-04-28T03:47:44;16.10;58.60
71994;DHT22;59861;50.268;8.648;2023-04-28T03:50:11;16.10;58.70
71994;DHT22;59861;50.268;8.648;2023-04-28T03:52:37;16.10;58.60
71994;DHT22;59861;50.268;8.648;2023-04-28T03:55:04;16.10;58.70
71994;DHT22;59861;50.268;8.648;2023-04-28T03:57:31;16.10;58.60
71994;DHT22;59861;50.268;8.648;2023-04-28T03:59:58;16.10;58.60
71994;DHT22;59861;50.268;8.648;2023-04-28T04:02:25;16.10;58.60
71994;DHT22;59861;50.268;8.648;2023-04-28T04:04:52;16.10;58.60
71994;DHT22;59861;50.268;8.648;2023-04-28T04:07:18;16.10;58.90
71994;DHT22;59861;50.268;8.648;2023-04-28T04:09:45;16.10;58.90
71994;DHT22;59861;50.268;8.648;2023-04-28T04:12:12;16.00;58.90
71994;DHT22;59861;50.268;8.648;2023-04-28T04:14:39;16.10;59.10
71994;DHT22;59861;50.268;8.648;2023-04-28T04:17:06;16.10;59.10
71994;DHT22;59861;50.268;8.648;2023-04-28T04:19:33;16.10;59.10
71994;DHT22;59861;50.268;8.648;2023-04-28T04:21:59;16.10;59.20
71994;DHT22;59861;50.268;8.648;2023-04-28T04:24:26;16.10;59.20
71994;DHT22;59861;50.268;8.648;2023-04-28T04:26:53;16.10;59.10
71994;DHT22;59861;50.268;8.648;2023-04-28T04:29:20;16.10;59.10
71994;DHT22;59861;50.268;8.648;2023-04-28T04:31:47;16.20;59.00
71994;DHT22;59861;50.268;8.648;2023-04-28T04:34:14;16.10;59.00
71994;DHT22;59861;50.268;8.648;2023-04-28T04:36:41;16.10;59.10
71994;DHT22;59861;50.268;8.648;2023-04-28T04:39:08;16.20;59.00
71994;DHT22;59861;50.268;8.648;2023-04-28T04:41:34;16.10;59.20
71994;DHT22;59861;50.268;8.648;2023-04-28T04:44:01;16.10;59.20
71994;DHT22;59861;50.268;8.648;2023-04-28T04:46:29;16.10;59.30
71994;DHT22;59861;50.268;8.648;2023-04-28T04:48:56;16.10;59.40
71994;DHT22;59861;50.268;8.648;2023-04-28T04:51:22;16.10;59.30
71994;DHT22;59861;50.268;8.648;2023-04-28T04:53:49;16.10;59.30
71994;DHT22;59861;50.268;8.648;2023-04-28T04:56:16;16.20;59.30
71994;DHT22;59861;50.268;8.648;2023-04-28T04:58:43;16.20;59.40
71994;DHT22;59861;50.268;8.648;2023-04-28T05:01:10;16.20;59.40
71994;DHT22;59861;50.268;8.648;2023-04-28T05:03:37;16.20;59.40
71994;DHT22;59861;50.268;8.648;2023-04-28T05:06:03;16.20;59.40
71994;DHT22;59861;50.268;8.648;2023-04-28T05:08:30;16.20;59.50
71994;DHT22;59861;50.268;8.648;2023-04-28T05:10:57;16.20;59.50
71994;DHT22;59861;50.268;8.648;2023-04-28T05:13:24;16.30;59.50
71994;DHT22;59861;50.268;8.648;2023-04-28T05:15:51;16.30;59.60
71994;DHT22;59861;50.268;8.648;2023-04-28T05:18:18;16.20;59.50
71994;DHT22;59861;50.268;8.648;2023-04-28T05:20:44;16.30;59.60
71994;DHT22;59861;50.268;8.648;2023-04-28T05:23:11;16.30;59.50
71994;DHT22;59861;50.268;8.648;2023-04-28T05:25:38;16.30;59.60
71994;DHT22;59861;50.268;8.648;2023-04-28T05:28:07;16.30;59.50
71994;DHT22;59861;50.268;8.648;2023-04-28T05:30:33;16.30;59.50
71994;DHT22;59861;50.268;8.648;2023-04-28T05:33:00;16.30;59.50
71994;DHT22;59861;50.268;8.648;2023-04-28T05:35:27;16.30;59.50
71994;DHT22;59861;50.268;8.648;2023-04-28T05:37:56;16.40;59.60
71994;DHT22;59861;50.268;8.648;2023-04-28T05:40:23;16.30;59.50
71994;DHT22;59861;50.268;8.648;2023-04-28T05:42:50;16.40;59.50
71994;DHT22;59861;50.268;8.648;2023-04-28T05:45:17;16.40;59.50
71994;DHT22;59861;50.268;8.648;2023-04-28T05:47:43;16.40;59.50
71994;DHT22;59861;50.268;8.648;2023-04-28T05:50:10;16.40;59.40
71994;DHT22;59861;50.268;8.648;2023-04-28T05:52:37;16.40;59.50
71994;DHT22;59861;50.268;8.648;2023-04-28T05:55:04;16.40;59.50
71994;DHT22;59861;50.268;8.648;2023-04-28T05:57:31;16.40;59.50
71994;DHT22;59861;50.268;8.648;2023-04-28T05:59:58;16.40;59.40
71994;DHT22;59861;50.268;8.648;2023-04-28T06:02:24;16.40;59.40
71994;DHT22;59861;50.268;8.648;2023-04-28T06:04:51;16.40;59.40
71994;DHT22;59861;50.268;8.648;2023-04-28T06:07:18;16.40;59.30
71994;DHT22;59861;50.268;8.648;2023-04-28T06:09:45;16.40;59.40
71994;DHT22;59861;50.268;8.648;2023-04-28T06:12:12;16.40;59.30
71994;DHT22;59861;50.268;8.648;2023-04-28T06:14:39;16.40;59.30
71994;DHT22;59861;50.268;8.648;2023-04-28T06:17:05;16.40;59.20
71994;DHT22;59861;50.268;8.648;2023-04-28T06:19:32;16.40;59.30
71994;DHT22;59861;50.268;8.648;2023-04-28T06:21:59;16.40;59.30
71994;DHT22;59861;50.268;8.648;2023-04-28T06:24:26;16.30;59.20
71994;DHT22;59861;50.268;8.648;2023-04-28T06:26:53;16.40;59.30
71994;DHT22;59861;50.268;8.648;2023-04-28T06:29:19;16.30;59.20
71994;DHT22;59861;50.268;8.648;2023-04-28T06:31:48;16.40;59.20
71994;DHT22;59861;50.268;8.648;2023-04-28T06:34:15;16.30;59.10
71994;DHT22;59861;50.268;8.648;2023-04-28T06:36:42;16.40;59.10
71994;DHT22;59861;50.268;8.648;2023-04-28T06:39:08;16.30;59.10
71994;DHT22;59861;50.268;8.648;2023-04-28T06:41:35;16.30;59.10
71994;DHT22;59861;50.268;8.648;2023-04-28T06:44:02;16.30;59.10
71994;DHT22;59861;50.268;8.648;2023-04-28T06:46:30;16.40;59.10
71994;DHT22;59861;50.268;8.648;2023-04-28T06:48:57;16.30;59.10
71994;DHT22;59861;50.268;8.648;2023-04-28T06:51:23;16.30;59.20
71994;DHT22;59861;50.268;8.648;2023-04-28T06:53:51;16.30;59.20
71994;DHT22;59861;50.268;8.648;2023-04-28T06:56:18;16.30;59.20
71994;DHT22;59861;50.268;8.648;2023-04-28T06:58:45;16.30;59.30
71994;DHT22;59861;50.268;8.648;2023-04-28T07:01:12;16.30;59.10
71994;DHT22;59861;50.268;8.648;2023-04-28T07:03:39;16.30;59.20
71994;DHT22;59861;50.268;8.648;2023-04-28T07:06:05;16.30;59.20
71994;DHT22;59861;50.268;8.648;2023-04-28T07:08:33;16.30;59.30
71994;DHT22;59861;50.268;8.648;2023-04-28T07:10:59;16.30;59.20
71994;DHT22;59861;50.268;8.648;2023-04-28T07:13:28;16.30;59.20
71994;DHT22;59861;50.268;8.648;2023-04-28T07:15:56;16.30;59.20
71994;DHT22;59861;50.268;8.648;2023-04-28T07:18:22;16.30;59.10
71994;DHT22;59861;50.268;8.648;2023-04-28T07:20:49;16.20;59.10
71994;DHT22;59861;50.268;8.648;2023-04-28T07:23:16;16.30;59.20
71994;DHT22;59861;50.268;8.648;2023-04-28T07:25:43;16.20;59.10
71994;DHT22;59861;50.268;8.648;2023-04-28T07:28:12;16.20;59.30
71994;DHT22;59861;50.268;8.648;2023-04-28T07:30:39;16.20;59.10
71994;DHT22;59861;50.268;8.648;2023-04-28T07:33:05;16.20;59.20
71994;DHT22;59861;50.268;8.648;2023-04-28T07:35:32;16.20;59.10
71994;DHT22;59861;50.268;8.648;2023-04-28T07:37:59;16.20;59.10
71994;DHT22;59861;50.268;8.648;2023-04-28T07:40:27;16.20;59.20
71994;DHT22;59861;50.268;8.648;2023-04-28T07:42:54;16.20;59.30
71994;DHT22;59861;50.268;8.648;2023-04-28T07:45:21;16.20;59.30
71994;DHT22;59861;50.268;8.648;2023-04-28T07:47:47;16.20;59.20
71994;DHT22;59861;50.268;8.648;2023-04-28T07:50:14;16.20;59.20
71994;DHT22;59861;50.268;8.648;2023-04-28T07:52:42;16.20;59.20
71994;DHT22;59861;50.268;8.648;2023-04-28T07:55:09;16.20;58.70
71994;DHT22;59861;50.268;8.648;2023-04-28T07:57:36;16.20;59.30
71994;DHT22;59861;50.268;8.648;2023-04-28T08:00:03;16.20;59.30
71994;DHT22;59861;50.268;8.648;2023-04-28T08:02:30;16.20;59.40
71994;DHT22;59861;50.268;8.648;2023-04-28T08:04:58;16.20;59.30
71994;DHT22;59861;50.268;8.648;2023-04-28T08:07:26;16.20;59.30
71994;DHT22;59861;50.268;8.648;2023-04-28T08:09:54;16.20;59.30
71994;DHT22;59861;50.268;8.648;2023-04-28T08:12:20;16.20;59.30
71994;DHT22;59861;50.268;8.648;2023-04-28T08:14:47;16.20;59.40
71994;DHT22;59861;50.268;8.648;2023-04-28T08:17:14;16.20;59.30
71994;DHT22;59861;50.268;8.648;2023-04-28T08:19:41;16.20;59.40
71994;DHT22;59861;50.268;8.648;2023-04-28T08:22:09;16.20;59.40
71994;DHT22;59861;50.268;8.648;2023-04-28T08:24:36;16.10;60.20
71994;DHT22;59861;50.268;8.648;2023-04-28T08:27:03;16.10;59.30
71994;DHT22;59861;50.268;8.648;2023-04-28T08:29:30;16.10;59.40
71994;DHT22;59861;50.268;8.648;2023-04-28T08:31:57;16.10;59.40
71994;DHT22;59861;50.268;8.648;2023-04-28T08:34:24;16.20;59.40
71994;DHT22;59861;50.268;8.648;2023-04-28T08:36:51;16.10;59.70
71994;DHT22;59861;50.268;8.648;2023-04-28T08:39:19;16.10;59.40
71994;DHT22;59861;50.268;8.648;2023-04-28T08:41:47;16.10;59.50
71994;DHT22;59861;50.268;8.648;2023-04-28T08:44:14;16.10;59.40
71994;DHT22;59861;50.268;8.648;2023-04-28T08:46:42;16.20;59.50
71994;DHT22;59861;50.268;8.648;2023-04-28T08:49:14;16.20;59.60
71994;DHT22;59861;50.268;8.648;2023-04-28T08:51:42;16.10;59.70
71994;DHT22;59861;50.268;8.648;2023-04-28T08:54:06;16.10;59.60
71994;DHT22;59861;50.268;8.648;2023-04-28T08:56:34;16.10;59.80
71994;DHT22;59861;50.268;8.648;2023-04-28T08:59:01;16.10;59.90
71994;DHT22;59861;50.268;8.648;2023-04-28T09:01:30;16.10;59.90
71994;DHT22;59861;50.268;8.648;2023-04-28T09:03:59;16.10;60.10
71994;DHT22;59861;50.268;8.648;2023-04-28T09:06:25;16.10;60.20
71994;DHT22;59861;50.268;8.648;2023-04-28T09:08:53;16.10;60.30
71994;DHT22;59861;50.268;8.648;2023-04-28T09:11:19;16.20;60.50
71994;DHT22;59861;50.268;8.648;2023-04-28T09:13:46;16.20;60.50
71994;DHT22;59861;50.268;8.648;2023-04-28T09:16:13;16.20;60.60
71994;DHT22;59861;50.268;8.648;2023-04-28T09:18:40;16.20;60.60
71994;DHT22;59861;50.268;8.648;2023-04-28T09:21:08;16.20;60.70
71994;DHT22;59861;50.268;8.648;2023-04-28T09:23:45;16.20;60.70
71994;DHT22;59861;50.268;8.648;2023-04-28T09:26:04;16.20;60.70
71994;DHT22;59861;50.268;8.648;2023-04-28T09:28:33;16.20;60.70
71994;DHT22;59861;50.268;8.648;2023-04-28T09:31:00;16.20;60.70
71994;DHT22;59861;50.268;8.648;2023-04-28T09:33:26;16.20;60.70
71994;DHT22;59861;50.268;8.648;2023-04-28T09:35:53;16.20;60.70
71994;DHT22;59861;50.268;8.648;2023-04-28T09:38:21;16.20;60.70
71994;DHT22;59861;50.268;8.648;2023-04-28T09:41:01;16.30;60.80
71994;DHT22;59861;50.268;8.648;2023-04-28T09:43:29;16.30;60.80
71994;DHT22;59861;50.268;8.648;2023-04-28T09:45:57;16.30;60.80
71994;DHT22;59861;50.268;8.648;2023-04-28T09:48:28;16.30;60.80
71994;DHT22;59861;50.268;8.648;2023-04-28T09:50:55;16.30;60.90
71994;DHT22;59861;50.268;8.648;2023-04-28T09:53:24;16.30;61.00
71994;DHT22;59861;50.268;8.648;2023-04-28T09:55:52;16.30;60.90
71994;DHT22;59861;50.268;8.648;2023-04-28T09:58:20;16.30;60.90
71994;DHT22;59861;50.268;8.648;2023-04-28T10:00:51;16.30;61.80
71994;DHT22;59861;50.268;8.648;2023-04-28T10:03:20;16.30;61.00
71994;DHT22;59861;50.268;8.648;2023-04-28T10:05:47;16.40;61.00
71994;DHT22;59861;50.268;8.648;2023-04-28T10:08:16;16.40;61.00
71994;DHT22;59861;50.268;8.648;2023-04-28T10:10:45;16.40;60.90
71994;DHT22;59861;50.268;8.648;2023-04-28T10:13:16;16.40;60.90
71994;DHT22;59861;50.268;8.648;2023-04-28T10:15:49;16.40;61.00
71994;DHT22;59861;50.268;8.648;2023-04-28T10:18:13;16.40;61.00
71994;DHT22;59861;50.268;8.648;2023-04-28T10:20:45;16.40;61.00
71994;DHT22;59861;50.268;8.648;2023-04-28T10:25:56;16.50;60.90
71994;DHT22;59861;50.268;8.648;2023-04-28T10:28:26;16.50;61.00
71994;DHT22;59861;50.268;8.648;2023-04-28T10:31:09;16.50;60.90
71994;DHT22;59861;50.268;8.648;2023-04-28T10:33:37;16.50;61.00
71994;DHT22;59861;50.268;8.648;2023-04-28T10:36:04;16.50;61.00
71994;DHT22;59861;50.268;8.648;2023-04-28T10:38:31;16.50;61.10
71994;DHT22;59861;50.268;8.648;2023-04-28T10:40:58;16.50;61.00
71994;DHT22;59861;50.268;8.648;2023-04-28T10:56:10;16.60;60.80
71994;DHT22;59861;50.268;8.648;2023-04-28T10:58:37;16.60;60.60
71994;DHT22;59861;50.268;8.648;2023-04-28T11:03:50;16.60;60.70
71994;DHT22;59861;50.268;8.648;2023-04-28T11:06:25;16.60;60.80
71994;DHT22;59861;50.268;8.648;2023-04-28T11:08:55;16.60;60.80
71994;DHT22;59861;50.268;8.648;2023-04-28T11:11:23;16.70;60.70
71994;DHT22;59861;50.268;8.648;2023-04-28T11:13:51;16.70;60.70
71994;DHT22;59861;50.268;8.648;2023-04-28T11:16:19;16.70;60.70
71994;DHT22;59861;50.268;8.648;2023-04-28T11:18:56;16.70;61.60
71994;DHT22;59861;50.268;8.648;2023-04-28T11:21:24;16.70;60.60
71994;DHT22;59861;50.268;8.648;2023-04-28T11:23:53;16.80;60.70
71994;DHT22;59861;50.268;8.648;2023-04-28T11:26:19;16.80;60.50
71994;DHT22;59861;50.268;8.648;2023-04-28T11:28:56;16.80;60.50
71994;DHT22;59861;50.268;8.648;2023-04-28T11:31:19;16.80;60.60
71994;DHT22;59861;50.268;8.648;2023-04-28T11:33:53;16.80;60.50
71994;DHT22;59861;50.268;8.648;2023-04-28T11:36:24;16.80;60.50
71994;DHT22;59861;50.268;8.648;2023-04-28T11:38:51;16.80;60.60
71994;DHT22;59861;50.268;8.648;2023-04-28T11:41:18;16.80;60.60
71994;DHT22;59861;50.268;8.648;2023-04-28T11:43:44;16.80;60.40
71994;DHT22;59861;50.268;8.648;2023-04-28T11:46:21;16.80;60.50
71994;DHT22;59861;50.268;8.648;2023-04-28T11:48:54;16.80;60.50
71994;DHT22;59861;50.268;8.648;2023-04-28T11:51:27;16.80;60.50
71994;DHT22;59861;50.268;8.648;2023-04-28T11:53:53;16.90;60.50
71994;DHT22;59861;50.268;8.648;2023-04-28T11:56:20;16.90;60.50
71994;DHT22;59861;50.268;8.648;2023-04-28T12:01:43;16.90;60.50
71994;DHT22;59861;50.268;8.648;2023-04-28T12:04:02;16.90;60.50
71994;DHT22;59861;50.268;8.648;2023-04-28T12:06:29;16.90;60.40
71994;DHT22;59861;50.268;8.648;2023-04-28T12:08:56;16.90;61.40
71994;DHT22;59861;50.268;8.648;2023-04-28T12:11:24;16.90;60.50
71994;DHT22;59861;50.268;8.648;2023-04-28T12:14:04;16.90;60.60
71994;DHT22;59861;50.268;8.648;2023-04-28T12:16:37;16.90;60.60
71994;DHT22;59861;50.268;8.648;2023-04-28T12:19:06;17.00;60.60
71994;DHT22;59861;50.268;8.648;2023-04-28T12:21:35;17.00;60.60
71994;DHT22;59861;50.268;8.648;2023-04-28T12:24:12;17.00;60.70
71994;DHT22;59861;50.268;8.648;2023-04-28T12:26:31;17.00;60.80
71994;DHT22;59861;50.268;8.648;2023-04-28T12:28:58;17.00;60.50
71994;DHT22;59861;50.268;8.648;2023-04-28T12:31:24;17.00;60.50
71994;DHT22;59861;50.268;8.648;2023-04-28T12:33:51;16.90;60.50
71994;DHT22;59861;50.268;8.648;2023-04-28T12:36:18;17.00;60.80
71994;DHT22;59861;50.268;8.648;2023-04-28T12:38:48;17.00;60.70
71994;DHT22;59861;50.268;8.648;2023-04-28T12:41:14;17.00;60.80
71994;DHT22;59861;50.268;8.648;2023-04-28T12:43:41;17.00;60.60
71994;DHT22;59861;50.268;8.648;2023-04-28T12:46:09;17.00;60.70
71994;DHT22;59861;50.268;8.648;2023-04-28T12:48:38;17.00;60.60
71994;DHT22;59861;50.268;8.648;2023-04-28T12:51:04;17.10;60.60
71994;DHT22;59861;50.268;8.648;2023-04-28T12:53:31;17.10;60.50
71994;DHT22;59861;50.268;8.648;2023-04-28T12:55:58;17.10;60.50
71994;DHT22;59861;50.268;8.648;2023-04-28T12:58:25;17.10;60.50
71994;DHT22;59861;50.268;8.648;2023-04-28T13:00:52;17.10;60.40
71994;DHT22;59861;50.268;8.648;2023-04-28T13:03:18;17.10;60.50
71994;DHT22;59861;50.268;8.648;2023-04-28T13:05:46;17.10;60.60
71994;DHT22;59861;50.268;8.648;2023-04-28T13:08:12;17.00;60.60
71994;DHT22;59861;50.268;8.648;2023-04-28T13:10:39;17.10;60.90
71994;DHT22;59861;50.268;8.648;2023-04-28T13:13:06;17.10;60.90
71994;DHT22;59861;50.268;8.648;2023-04-28T13:15:33;17.10;60.90
71994;DHT22;59861;50.268;8.648;2023-04-28T13:18:00;17.20;60.90
71994;DHT22;59861;50.268;8.648;2023-04-28T13:20:27;17.20;61.00
71994;DHT22;59861;50.268;8.648;2023-04-28T13:22:54;17.10;61.20
71994;DHT22;59861;50.268;8.648;2023-04-28T13:25:21;17.10;61.60
71994;DHT22;59861;50.268;8.648;2023-04-28T13:27:47;17.20;61.80
71994;DHT22;59861;50.268;8.648;2023-04-28T13:30:14;17.20;61.80
71994;DHT22;59861;50.268;8.648;2023-04-28T13:32:41;17.20;61.80
71994;DHT22;59861;50.268;8.648;2023-04-28T13:35:08;17.20;61.70
71994;DHT22;59861;50.268;8.648;2023-04-28T13:37:35;17.30;61.70
71994;DHT22;59861;50.268;8.648;2023-04-28T13:40:03;17.30;61.80
71994;DHT22;59861;50.268;8.648;2023-04-28T13:42:31;17.30;61.70
71994;DHT22;59861;50.268;8.648;2023-04-28T13:44:57;17.30;61.80
71994;DHT22;59861;50.268;8.648;2023-04-28T13:47:24;17.30;61.70
71994;DHT22;59861;50.268;8.648;2023-04-28T13:49:51;17.40;62.00
71994;DHT22;59861;50.268;8.648;2023-04-28T13:52:18;17.40;61.90
71994;DHT22;59861;50.268;8.648;2023-04-28T13:54:45;17.40;62.80
71994;DHT22;59861;50.268;8.648;2023-04-28T13:57:12;17.40;61.90
71994;DHT22;59861;50.268;8.648;2023-04-28T13:59:38;17.40;61.80
71994;DHT22;59861;50.268;8.648;2023-04-28T14:02:06;17.50;62.10
71994;DHT22;59861;50.268;8.648;2023-04-28T14:04:34;17.50;61.90
71994;DHT22;59861;50.268;8.648;2023-04-28T14:07:01;17.50;61.90
71994;DHT22;59861;50.268;8.648;2023-04-28T14:09:28;17.50;62.00
71994;DHT22;59861;50.268;8.648;2023-04-28T14:11:55;17.50;62.10
71994;DHT22;59861;50.268;8.648;2023-04-28T14:14:23;17.50;62.20
71994;DHT22;59861;50.268;8.648;2023-04-28T14:16:50;17.50;62.10
71994;DHT22;59861;50.268;8.648;2023-04-28T14:19:17;17.50;62.20
71994;DHT22;59861;50.268;8.648;2023-04-28T14:21:44;17.60;62.30
71994;DHT22;59861;50.268;8.648;2023-04-28T14:24:11;17.60;62.10
71994;DHT22;59861;50.268;8.648;2023-04-28T14:26:39;17.60;62.10
71994;DHT22;59861;50.268;8.648;2023-04-28T14:29:07;17.60;62.20
71994;DHT22;59861;50.268;8.648;2023-04-28T14:31:34;17.60;62.30
71994;DHT22;59861;50.268;8.648;2023-04-28T14:34:03;17.70;62.30
71994;DHT22;59861;50.268;8.648;2023-04-28T14:36:30;17.70;62.00
71994;DHT22;59861;50.268;8.648;2023-04-28T14:38:59;17.70;62.50
71994;DHT22;59861;50.268;8.648;2023-04-28T14:41:26;17.80;63.00
71994;DHT22;59861;50.268;8.648;2023-04-28T14:43:53;17.80;63.30
71994;DHT22;59861;50.268;8.648;2023-04-28T14:46:19;17.80;63.60
71994;DHT22;59861;50.268;8.648;2023-04-28T14:48:48;17.80;63.40
71994;DHT22;59861;50.268;8.648;2023-04-28T14:51:15;17.80;63.80
71994;DHT22;59861;50.268;8.648;2023-04-28T14:53:42;17.80;63.70
71994;DHT22;59861;50.268;8.648;2023-04-28T14:56:09;17.80;63.70
71994;DHT22;59861;50.268;8.648;2023-04-28T14:58:36;17.80;63.60
71994;DHT22;59861;50.268;8.648;2023-04-28T15:01:03;17.80;63.90
71994;DHT22;59861;50.268;8.648;2023-04-28T15:03:29;17.90;64.10
71994;DHT22;59861;50.268;8.648;2023-04-28T15:05:57;18.00;64.20
71994;DHT22;59861;50.268;8.648;2023-04-28T15:08:24;18.00;64.20
71994;DHT22;59861;50.268;8.648;2023-04-28T15:10:50;18.00;63.70
71994;DHT22;59861;50.268;8.648;2023-04-28T15:13:17;18.00;64.20
71994;DHT22;59861;50.268;8.648;2023-04-28T15:15:44;18.00;64.20
71994;DHT22;59861;50.268;8.648;2023-04-28T15:18:11;18.10;63.90
71994;DHT22;59861;50.268;8.648;2023-04-28T15:20:38;18.10;63.80
71994;DHT22;59861;50.268;8.648;2023-04-28T15:23:05;18.10;64.00
71994;DHT22;59861;50.268;8.648;2023-04-28T15:25:31;18.10;63.90
71994;DHT22;59861;50.268;8.648;2023-04-28T15:27:58;18.10;64.20
71994;DHT22;59861;50.268;8.648;2023-04-28T15:30:25;18.10;64.10
71994;DHT22;59861;50.268;8.648;2023-04-28T15:32:52;18.10;64.30
71994;DHT22;59861;50.268;8.648;2023-04-28T15:35:19;18.20;64.40
71994;DHT22;59861;50.268;8.648;2023-04-28T15:37:46;18.30;63.70
71994;DHT22;59861;50.268;8.648;2023-04-28T15:40:14;18.20;63.40
71994;DHT22;59861;50.268;8.648;2023-04-28T15:42:41;18.10;63.80
71994;DHT22;59861;50.268;8.648;2023-04-28T15:45:10;18.10;64.10
71994;DHT22;59861;50.268;8.648;2023-04-28T15:47:38;18.20;63.90
71994;DHT22;59861;50.268;8.648;2023-04-28T15:50:06;18.10;64.10
71994;DHT22;59861;50.268;8.648;2023-04-28T15:52:33;18.00;64.00